createdAt,value
2023-02-08T00:03:24.615Z,0.80
2023-02-08T00:09:19.135Z,0.70
2023-02-08T00:15:42.375Z,0.70
2023-02-08T00:22:00.773Z,0.70
2023-02-08T00:27:55.151Z,0.60
2023-02-08T00:33:49.694Z,0.60
2023-02-08T00:40:08.770Z,0.60
2023-02-08T00:46:27.215Z,0.50
2023-02-08T00:52:21.739Z,0.50
2023-02-08T00:58:16.173Z,0.50
2023-02-08T01:04:35.972Z,0.50
2023-02-08T01:10:54.329Z,0.50
2023-02-08T01:16:48.690Z,0.40
2023-02-08T01:22:43.193Z,0.40
2023-02-08T01:29:01.838Z,0.40
2023-02-08T01:35:20.226Z,0.30
2023-02-08T01:41:16.659Z,0.30
2023-02-08T01:47:11.180Z,0.20
2023-02-08T01:53:41.761Z,0.30
2023-02-08T02:00:01.893Z,0.20
2023-02-08T02:05:57.755Z,0.20
2023-02-08T02:11:52.359Z,0.20
2023-02-08T02:18:10.972Z,0.10
2023-02-08T02:24:29.320Z,0.10
2023-02-08T02:30:23.648Z,0.10
2023-02-08T02:36:29.190Z,0.00
2023-02-08T02:43:15.180Z,0.00
2023-02-08T02:49:37.407Z,0.10
2023-02-08T02:55:33.855Z,0.00
2023-02-08T03:01:30.252Z,-0.10
2023-02-08T03:08:03.834Z,-0.10
2023-02-08T03:14:22.192Z,-0.10
2023-02-08T03:20:18.774Z,-0.10
2023-02-08T03:26:16.683Z,-0.10
2023-02-08T03:32:43.065Z,-0.20
2023-02-08T03:39:03.578Z,-0.20
2023-02-08T03:45:02.925Z,-0.20
2023-02-08T03:50:57.668Z,-0.30
2023-02-08T03:57:30.923Z,-0.30
2023-02-08T04:03:50.214Z,-0.20
2023-02-08T04:09:44.764Z,-0.30
2023-02-08T04:15:39.298Z,-0.30
2023-02-08T04:21:57.787Z,-0.30
2023-02-08T04:28:16.380Z,-0.20
2023-02-08T04:34:11.670Z,-0.30
2023-02-08T04:40:07.456Z,-0.30
2023-02-08T04:46:26.017Z,-0.40
2023-02-08T04:52:44.548Z,-0.40
2023-02-08T04:58:38.936Z,-0.40
2023-02-08T05:04:33.430Z,-0.40
2023-02-08T05:10:51.944Z,-0.40
2023-02-08T05:17:10.405Z,-0.40
2023-02-08T05:23:06.034Z,-0.50
2023-02-08T05:29:00.488Z,-0.40
2023-02-08T05:35:18.952Z,-0.50
2023-02-08T05:41:37.299Z,-0.30
2023-02-08T05:47:31.649Z,-0.60
2023-02-08T05:53:26.276Z,-0.60
2023-02-08T05:59:56.753Z,-0.60
2023-02-08T06:06:15.137Z,-0.60
2023-02-08T06:12:09.515Z,-0.70
2023-02-08T06:18:04.038Z,-0.70
2023-02-08T06:24:22.511Z,-0.70
2023-02-08T06:30:41.210Z,-0.80
2023-02-08T06:36:36.265Z,-0.70
2023-02-08T06:42:30.727Z,-0.70
2023-02-08T06:48:49.250Z,-0.70
2023-02-08T06:55:07.744Z,-0.80
2023-02-08T07:01:06.415Z,-0.70
2023-02-08T07:07:01.885Z,-0.70
2023-02-08T07:13:20.359Z,-0.60
2023-02-08T07:19:39.141Z,-0.60
2023-02-08T07:25:33.525Z,-0.60
2023-02-08T07:31:30.992Z,-0.10
2023-02-08T07:37:49.550Z,-0.50
2023-02-08T07:44:07.905Z,-0.30
2023-02-08T07:50:02.254Z,-0.30
2023-02-08T07:55:56.735Z,0.10
2023-02-08T08:02:27.224Z,1.00
2023-02-08T08:08:47.651Z,1.80
2023-02-08T08:14:42.093Z,2.30
2023-02-08T08:20:37.742Z,2.00
2023-02-08T08:26:56.302Z,1.70
2023-02-08T08:33:14.706Z,1.70
2023-02-08T08:39:09.288Z,1.80
2023-02-08T08:45:04.288Z,2.00
2023-02-08T08:51:24.276Z,2.30
2023-02-08T08:57:42.706Z,2.80
2023-02-08T09:03:37.150Z,3.60
2023-02-08T09:09:31.669Z,4.20
2023-02-08T09:15:51.197Z,4.40
2023-02-08T09:22:10.624Z,4.30
2023-02-08T09:28:05.072Z,4.00
2023-02-08T09:34:02.393Z,3.80
2023-02-08T09:40:22.963Z,3.90
2023-02-08T09:46:41.892Z,3.90
2023-02-08T09:52:47.845Z,4.10
2023-02-08T09:58:45.975Z,4.30
2023-02-08T10:05:20.754Z,4.90
2023-02-08T10:11:45.645Z,5.00
2023-02-08T10:17:52.627Z,4.70
2023-02-08T10:24:35.880Z,5.00
2023-02-08T10:30:54.393Z,5.20
2023-02-08T10:37:14.532Z,5.20
2023-02-08T10:43:14.788Z,5.30
2023-02-08T10:49:37.809Z,5.40
2023-02-08T10:55:56.410Z,5.50
2023-02-08T11:02:19.748Z,6.00
2023-02-08T11:08:20.355Z,6.00
2023-02-08T11:14:19.189Z,6.00
2023-02-08T11:20:39.789Z,6.40
2023-02-08T11:26:58.266Z,6.50
2023-02-08T11:33:12.172Z,6.60
2023-02-08T11:39:18.288Z,6.80
2023-02-08T11:45:37.248Z,7.10
2023-02-08T11:51:55.736Z,7.40
2023-02-08T11:57:54.755Z,7.50
2023-02-08T12:03:50.642Z,7.50
2023-02-08T12:10:26.869Z,7.70
2023-02-08T12:16:45.275Z,7.90
2023-02-08T12:22:41.260Z,8.00
2023-02-08T12:29:06.827Z,8.20
2023-02-08T12:36:04.762Z,8.40
2023-02-08T12:42:26.416Z,8.10
2023-02-08T12:48:23.777Z,8.20
2023-02-08T12:54:32.643Z,8.60
2023-02-08T13:00:51.202Z,8.60
2023-02-08T13:07:19.553Z,8.90
2023-02-08T13:13:21.279Z,8.80
2023-02-08T13:19:40.591Z,8.60
2023-02-08T13:26:24.637Z,8.50
2023-02-08T13:32:44.316Z,8.60
2023-02-08T13:38:40.412Z,8.70
2023-02-08T13:44:37.335Z,8.90
2023-02-08T13:50:57.126Z,8.80
2023-02-08T13:57:35.141Z,9.00
2023-02-08T14:03:34.099Z,9.00
2023-02-08T14:09:44.875Z,9.00
2023-02-08T14:16:34.141Z,9.00
2023-02-08T14:22:53.557Z,9.00
2023-02-08T14:28:48.856Z,8.70
2023-02-08T14:34:45.160Z,8.70
2023-02-08T14:41:03.977Z,8.70
2023-02-08T14:47:25.879Z,8.50
2023-02-08T14:53:40.690Z,8.50
2023-02-08T14:59:38.783Z,8.60
2023-02-08T15:06:22.570Z,8.60
2023-02-08T15:12:41.317Z,8.70
2023-02-08T15:18:35.672Z,9.20
2023-02-08T15:24:30.144Z,9.20
2023-02-08T15:31:06.081Z,8.70
2023-02-08T15:37:24.489Z,8.40
2023-02-08T15:43:20.110Z,8.60
2023-02-08T15:49:15.845Z,8.80
2023-02-08T15:57:44.603Z,8.80
2023-02-08T16:04:06.180Z,8.70
2023-02-08T16:10:00.613Z,8.40
2023-02-08T16:16:14.839Z,7.90
2023-02-08T16:22:45.344Z,7.40
2023-02-08T16:29:04.858Z,7.00
2023-02-08T16:35:01.448Z,6.60
2023-02-08T16:40:59.135Z,6.30
2023-02-08T16:47:38.643Z,6.00
2023-02-08T16:54:01.184Z,5.70
2023-02-08T16:59:56.764Z,5.40
2023-02-08T17:05:53.904Z,5.20
2023-02-08T17:12:22.459Z,5.00
2023-02-08T17:18:41.249Z,4.80
2023-02-08T17:24:37.212Z,4.60
2023-02-08T17:30:39.339Z,4.40
2023-02-08T17:37:03.828Z,4.20
2023-02-08T17:43:23.298Z,4.00
2023-02-08T17:49:19.660Z,3.80
2023-02-08T17:55:14.851Z,3.70
2023-02-08T18:01:33.401Z,3.60
2023-02-08T18:07:53.152Z,3.50
2023-02-08T18:13:48.900Z,3.30
2023-02-08T18:19:43.464Z,3.20
2023-02-08T18:26:16.111Z,3.20
2023-02-08T18:32:34.573Z,3.10
2023-02-08T18:38:29.018Z,3.00
2023-02-08T18:44:23.838Z,2.90
2023-02-08T18:50:43.776Z,2.80
2023-02-08T18:57:02.196Z,2.80
2023-02-08T19:02:56.541Z,2.80
2023-02-08T19:08:52.125Z,2.70
2023-02-08T19:15:10.609Z,2.70
2023-02-08T19:21:30.256Z,2.60
2023-02-08T19:27:24.604Z,2.60
2023-02-08T19:33:19.047Z,2.50
2023-02-08T19:39:37.537Z,2.50
2023-02-08T19:45:55.935Z,2.50
2023-02-08T19:51:50.334Z,2.30
2023-02-08T19:57:44.775Z,2.20
2023-02-08T20:04:03.564Z,2.10
2023-02-08T20:10:21.965Z,2.00
2023-02-08T20:16:16.540Z,1.90
2023-02-08T20:22:11.035Z,1.80
2023-02-08T20:28:44.470Z,1.80
2023-02-08T20:35:02.875Z,1.80
2023-02-08T20:41:05.097Z,1.70
2023-02-08T20:46:59.655Z,1.60
2023-02-08T20:53:18.179Z,1.60
2023-02-08T20:59:37.718Z,1.50
2023-02-08T21:05:32.197Z,1.40
2023-02-08T21:11:30.557Z,1.40
2023-02-08T21:17:49.136Z,1.30
2023-02-08T21:24:07.830Z,1.30
2023-02-08T21:30:02.188Z,1.20
2023-02-08T21:35:56.689Z,1.20
2023-02-08T21:42:15.175Z,1.10
2023-02-08T21:48:53.504Z,1.00
2023-02-08T21:54:53.278Z,1.10
2023-02-08T22:00:47.766Z,1.00
2023-02-08T22:07:06.251Z,1.00
2023-02-08T22:13:24.643Z,1.00
2023-02-08T22:19:19.121Z,1.00
2023-02-08T22:25:13.684Z,0.90
2023-02-08T22:31:45.319Z,0.90
2023-02-08T22:38:03.740Z,0.90
2023-02-08T22:43:58.123Z,0.80
2023-02-08T22:49:52.664Z,0.70
2023-02-08T22:56:13.041Z,0.80
2023-02-08T23:02:31.480Z,0.80
2023-02-08T23:08:25.908Z,0.80
2023-02-08T23:14:20.342Z,0.70
2023-02-08T23:20:39.855Z,0.70
2023-02-08T23:26:59.307Z,0.70
2023-02-08T23:32:53.653Z,0.60
2023-02-08T23:38:48.794Z,0.60
2023-02-08T23:45:07.730Z,0.60
2023-02-08T23:51:26.221Z,0.60
2023-02-08T23:57:21.651Z,0.60
